createdAt,value
2018-07-29T00:00:05.860Z,18.95
2018-07-29T00:02:35.057Z,18.94
2018-07-29T00:05:03.186Z,19.00
2018-07-29T00:07:31.191Z,18.85
2018-07-29T00:09:59.182Z,18.87
2018-07-29T00:12:27.242Z,18.82
2018-07-29T00:14:55.233Z,18.85
2018-07-29T00:17:23.225Z,18.74
2018-07-29T00:19:51.315Z,18.79
2018-07-29T00:22:19.325Z,18.68
2018-07-29T00:24:47.321Z,18.64
2018-07-29T00:27:15.316Z,18.73
2018-07-29T00:29:43.316Z,18.68
2018-07-29T00:32:11.294Z,18.54
2018-07-29T00:34:39.348Z,18.56
2018-07-29T00:37:07.400Z,18.72
2018-07-29T00:39:35.428Z,18.83
2018-07-29T00:42:03.541Z,18.84
2018-07-29T00:44:31.540Z,18.62
2018-07-29T00:46:59.570Z,18.65
2018-07-29T00:49:27.561Z,18.59
2018-07-29T00:51:55.553Z,18.65
2018-07-29T00:54:23.548Z,18.63
2018-07-29T00:56:51.588Z,18.70
2018-07-29T00:59:19.588Z,18.40
2018-07-29T01:01:47.592Z,18.58
2018-07-29T01:04:15.648Z,18.64
2018-07-29T01:06:43.629Z,18.68
2018-07-29T01:09:12.848Z,18.60
2018-07-29T01:11:41.078Z,18.50
2018-07-29T01:14:09.105Z,18.45
2018-07-29T01:16:37.148Z,18.50
2018-07-29T01:19:05.437Z,18.47
2018-07-29T01:21:33.450Z,18.45
2018-07-29T01:24:01.436Z,18.50
2018-07-29T01:26:29.439Z,18.44
2018-07-29T01:28:57.456Z,18.33
2018-07-29T01:31:25.541Z,18.36
2018-07-29T01:33:53.560Z,18.24
2018-07-29T01:36:21.606Z,18.38
2018-07-29T01:38:49.753Z,18.30
2018-07-29T01:41:17.786Z,18.27
2018-07-29T01:43:45.796Z,18.39
2018-07-29T01:46:13.820Z,18.32
2018-07-29T01:48:42.129Z,18.42
2018-07-29T01:51:10.621Z,18.32
2018-07-29T01:53:38.664Z,18.38
2018-07-29T01:56:06.788Z,18.42
2018-07-29T01:58:34.816Z,18.33
2018-07-29T02:01:02.840Z,18.36
2018-07-29T02:03:30.816Z,18.33
2018-07-29T02:05:58.825Z,18.38
2018-07-29T02:08:26.844Z,18.30
2018-07-29T02:10:54.844Z,18.31
2018-07-29T02:13:22.832Z,18.30
2018-07-29T02:15:50.841Z,18.30
2018-07-29T02:18:18.864Z,18.22
2018-07-29T02:20:46.957Z,18.23
2018-07-29T02:23:14.968Z,18.25
2018-07-29T02:25:42.984Z,18.31
2018-07-29T02:28:10.963Z,18.33
2018-07-29T02:30:38.958Z,18.30
2018-07-29T02:33:06.936Z,18.26
2018-07-29T02:35:34.952Z,18.27
2018-07-29T02:38:02.928Z,18.36
2018-07-29T02:40:30.945Z,18.25
2018-07-29T02:42:58.966Z,18.26
2018-07-29T02:45:26.963Z,18.22
2018-07-29T02:47:54.964Z,18.21
2018-07-29T02:50:23.029Z,18.14
2018-07-29T02:52:51.018Z,18.12
2018-07-29T02:55:19.024Z,18.10
2018-07-29T02:57:47.024Z,18.12
2018-07-29T03:00:15.028Z,18.08
2018-07-29T03:02:43.024Z,18.09
2018-07-29T03:05:11.222Z,17.91
2018-07-29T03:07:39.237Z,17.90
2018-07-29T03:10:07.248Z,17.71
2018-07-29T03:12:35.277Z,17.68
2018-07-29T03:15:03.303Z,17.69
2018-07-29T03:17:31.308Z,17.67
2018-07-29T03:19:59.336Z,17.61
2018-07-29T03:22:27.347Z,17.65
2018-07-29T03:24:55.352Z,17.63
2018-07-29T03:27:23.345Z,17.53
2018-07-29T03:29:51.365Z,17.46
2018-07-29T03:32:19.364Z,17.44
2018-07-29T03:34:47.538Z,17.44
2018-07-29T03:37:15.493Z,17.42
2018-07-29T03:39:43.503Z,17.40
2018-07-29T03:42:11.500Z,17.44
2018-07-29T03:44:39.523Z,17.42
2018-07-29T03:47:07.574Z,17.29
2018-07-29T03:49:35.738Z,17.21
2018-07-29T03:52:03.886Z,17.28
2018-07-29T03:54:31.888Z,17.27
2018-07-29T03:56:59.932Z,17.27
2018-07-29T03:59:27.985Z,17.39
2018-07-29T04:01:55.981Z,17.34
2018-07-29T04:04:23.969Z,17.33
2018-07-29T04:06:52.022Z,17.47
2018-07-29T04:09:20.081Z,17.58
2018-07-29T04:11:48.064Z,17.64
2018-07-29T04:14:17.141Z,17.72
2018-07-29T04:16:45.156Z,17.72
2018-07-29T04:19:13.180Z,17.76
2018-07-29T04:21:41.251Z,17.84
2018-07-29T04:24:09.652Z,17.85
2018-07-29T04:26:38.436Z,17.92
2018-07-29T04:29:06.624Z,17.96
2018-07-29T04:31:34.664Z,17.91
2018-07-29T04:34:02.685Z,18.19
2018-07-29T04:36:30.712Z,18.26
2018-07-29T04:38:58.733Z,18.40
2018-07-29T04:41:26.772Z,18.45
2018-07-29T04:43:54.764Z,18.63
2018-07-29T04:46:22.772Z,19.01
2018-07-29T04:48:50.752Z,19.14
2018-07-29T04:51:18.824Z,19.22
2018-07-29T04:53:46.812Z,19.06
2018-07-29T04:56:15.177Z,19.28
2018-07-29T04:58:43.217Z,19.45
2018-07-29T05:01:11.149Z,19.29
2018-07-29T05:03:39.215Z,19.39
2018-07-29T05:06:07.277Z,19.45
2018-07-29T05:08:35.435Z,19.65
2018-07-29T05:11:03.444Z,19.78
2018-07-29T05:13:31.458Z,19.83
2018-07-29T05:15:59.477Z,20.01
2018-07-29T05:18:27.618Z,20.16
2018-07-29T05:21:02.288Z,20.22
2018-07-29T05:23:30.312Z,20.33
2018-07-29T05:25:58.410Z,20.37
2018-07-29T05:28:26.352Z,20.64
2018-07-29T05:30:54.364Z,21.38
2018-07-29T05:33:22.380Z,22.67
2018-07-29T05:35:50.364Z,23.97
2018-07-29T05:38:18.456Z,24.98
2018-07-29T05:40:46.469Z,25.31
2018-07-29T05:43:14.549Z,25.11
2018-07-29T05:45:42.687Z,24.88
2018-07-29T05:48:10.759Z,24.78
2018-07-29T05:50:38.856Z,24.26
2018-07-29T05:53:06.930Z,23.79
2018-07-29T05:55:35.137Z,24.30
2018-07-29T05:58:03.096Z,25.04
2018-07-29T06:00:31.065Z,25.85
2018-07-29T06:02:59.125Z,26.48
2018-07-29T06:05:27.141Z,27.00
2018-07-29T06:07:55.159Z,27.48
2018-07-29T06:10:23.141Z,28.03
2018-07-29T06:12:51.177Z,28.81
2018-07-29T06:15:19.246Z,29.84
2018-07-29T06:17:47.289Z,30.93
2018-07-29T06:20:15.306Z,32.09
2018-07-29T06:22:43.308Z,33.42
2018-07-29T06:25:11.360Z,33.23
2018-07-29T06:27:39.324Z,33.40
2018-07-29T06:30:07.797Z,33.78
2018-07-29T06:32:37.000Z,34.11
2018-07-29T06:35:05.056Z,34.32
2018-07-29T06:37:33.224Z,34.24
2018-07-29T06:40:01.222Z,33.82
2018-07-29T06:42:29.221Z,34.01
2018-07-29T06:44:59.557Z,34.21
2018-07-29T06:47:27.940Z,35.00
2018-07-29T06:49:56.030Z,35.87
2018-07-29T06:52:31.089Z,36.11
2018-07-29T06:54:59.100Z,35.91
2018-07-29T06:57:27.392Z,36.33
2018-07-29T06:59:55.377Z,36.73
2018-07-29T07:02:23.683Z,36.21
2018-07-29T07:04:51.700Z,35.31
2018-07-29T07:07:19.705Z,34.88
2018-07-29T07:09:47.684Z,34.39
2018-07-29T07:12:15.700Z,33.93
2018-07-29T07:14:43.733Z,33.32
2018-07-29T07:17:11.931Z,33.74
2018-07-29T07:19:39.970Z,33.98
2018-07-29T07:22:07.969Z,33.91
2018-07-29T07:24:36.021Z,33.71
2018-07-29T07:27:04.116Z,33.81
2018-07-29T07:29:32.085Z,34.12
2018-07-29T07:32:00.105Z,34.90
2018-07-29T07:34:28.344Z,35.42
2018-07-29T07:36:56.456Z,35.85
2018-07-29T07:39:24.541Z,36.73
2018-07-29T07:41:52.764Z,37.02
2018-07-29T07:44:21.035Z,36.77
2018-07-29T07:46:49.229Z,36.65
2018-07-29T07:49:17.293Z,35.44
2018-07-29T07:51:45.276Z,34.54
2018-07-29T07:56:54.753Z,32.82
2018-07-29T07:59:22.769Z,32.33
2018-07-29T08:01:51.167Z,31.78
2018-07-29T08:04:19.073Z,31.38
2018-07-29T08:06:47.112Z,31.18
2018-07-29T08:09:15.217Z,31.21
2018-07-29T08:11:44.188Z,30.48
2018-07-29T08:14:12.309Z,30.96
2018-07-29T08:16:40.569Z,31.43
2018-07-29T08:19:08.576Z,31.84
2018-07-29T08:21:36.696Z,31.24
2018-07-29T08:24:06.032Z,30.42
2018-07-29T08:26:34.123Z,29.23
2018-07-29T08:29:02.244Z,28.93
2018-07-29T08:31:30.247Z,28.67
2018-07-29T08:33:58.236Z,28.57
2018-07-29T08:36:26.274Z,28.68
2018-07-29T08:38:54.306Z,28.56
2018-07-29T08:41:22.255Z,28.63
2018-07-29T08:43:50.248Z,28.71
2018-07-29T08:46:19.241Z,28.43
2018-07-29T08:48:47.325Z,27.94
2018-07-29T08:51:15.389Z,27.67
2018-07-29T08:53:43.464Z,27.56
2018-07-29T08:56:11.552Z,27.75
2018-07-29T08:58:39.588Z,28.15
2018-07-29T09:01:07.995Z,28.22
2018-07-29T09:03:36.029Z,28.56
2018-07-29T09:06:04.034Z,29.07
2018-07-29T09:08:32.095Z,29.04
2018-07-29T09:11:00.164Z,28.78
2018-07-29T09:13:28.228Z,29.00
2018-07-29T09:15:56.392Z,29.55
2018-07-29T09:18:24.391Z,29.58
2018-07-29T09:20:52.504Z,29.53
2018-07-29T09:23:20.516Z,29.47
2018-07-29T09:25:49.520Z,29.29
2018-07-29T09:28:17.584Z,29.15
2018-07-29T09:30:46.703Z,29.12
2018-07-29T09:33:14.644Z,29.06
2018-07-29T09:35:42.654Z,28.89
2018-07-29T09:38:10.637Z,28.55
2018-07-29T09:40:38.649Z,28.39
2018-07-29T09:43:06.717Z,28.16
2018-07-29T09:45:34.882Z,27.98
2018-07-29T09:48:02.793Z,27.84
2018-07-29T09:50:30.799Z,27.80
2018-07-29T09:52:58.800Z,28.13
2018-07-29T09:55:26.918Z,28.80
2018-07-29T09:57:54.912Z,29.07
2018-07-29T10:00:27.127Z,28.80
2018-07-29T10:02:56.185Z,28.99
2018-07-29T10:05:24.160Z,29.01
2018-07-29T10:07:52.193Z,28.88
2018-07-29T10:10:20.410Z,29.02
2018-07-29T10:12:48.512Z,28.84
2018-07-29T10:15:16.502Z,28.85
2018-07-29T10:17:44.554Z,28.12
2018-07-29T10:20:12.644Z,27.83
2018-07-29T10:22:40.657Z,27.70
2018-07-29T10:25:08.710Z,27.54
2018-07-29T10:27:36.776Z,27.82
2018-07-29T10:30:05.390Z,28.01
2018-07-29T10:32:33.608Z,28.37
2018-07-29T10:35:01.611Z,28.38
2018-07-29T10:37:29.660Z,28.41
2018-07-29T10:39:57.701Z,28.47
2018-07-29T10:42:25.731Z,28.81
2018-07-29T10:44:53.829Z,29.11
2018-07-29T10:47:21.885Z,28.97
2018-07-29T10:49:50.096Z,28.67
2018-07-29T10:52:18.151Z,28.33
2018-07-29T10:54:46.140Z,28.57
2018-07-29T10:57:14.304Z,28.80
2018-07-29T10:59:42.332Z,28.75
2018-07-29T11:02:10.406Z,28.66
2018-07-29T11:04:38.405Z,28.85
2018-07-29T11:07:06.467Z,28.50
2018-07-29T11:09:34.464Z,28.28
2018-07-29T11:12:02.481Z,28.58
2018-07-29T11:14:30.478Z,28.54
2018-07-29T11:16:58.510Z,28.50
2018-07-29T11:19:26.500Z,28.50
2018-07-29T11:21:54.503Z,28.55
2018-07-29T11:24:22.484Z,28.40
2018-07-29T11:26:50.515Z,28.20
2018-07-29T11:29:18.585Z,28.42
2018-07-29T11:31:46.564Z,28.31
2018-07-29T11:34:14.548Z,28.25
2018-07-29T11:36:42.556Z,28.51
2018-07-29T11:39:11.188Z,28.39
2018-07-29T11:41:39.195Z,28.53
2018-07-29T11:44:07.632Z,28.90
2018-07-29T11:46:35.692Z,28.90
2018-07-29T11:49:04.089Z,29.01
2018-07-29T11:51:32.158Z,29.34
2018-07-29T11:54:00.212Z,29.31
2018-07-29T11:56:29.436Z,29.17
2018-07-29T11:58:57.446Z,29.24
2018-07-29T12:01:26.818Z,29.11
2018-07-29T12:03:54.834Z,29.44
2018-07-29T12:06:22.825Z,29.64
2018-07-29T12:08:50.871Z,29.40
2018-07-29T12:11:18.918Z,29.20
2018-07-29T12:13:46.993Z,29.02
2018-07-29T12:16:15.155Z,29.19
2018-07-29T12:18:43.313Z,29.18
2018-07-29T12:21:11.314Z,29.57
2018-07-29T12:23:39.315Z,29.65
2018-07-29T12:26:07.425Z,29.40
2018-07-29T12:28:35.415Z,29.70
2018-07-29T12:31:03.433Z,29.98
2018-07-29T12:33:31.437Z,30.09
2018-07-29T12:35:59.720Z,30.08
2018-07-29T12:38:27.792Z,30.28
2018-07-29T12:40:55.824Z,30.82
2018-07-29T12:43:24.050Z,30.79
2018-07-29T12:45:52.068Z,30.31
2018-07-29T12:48:20.114Z,30.22
2018-07-29T12:50:48.114Z,30.19
2018-07-29T12:53:16.150Z,30.01
2018-07-29T12:55:44.152Z,30.28
2018-07-29T12:58:12.276Z,30.23
2018-07-29T13:00:40.284Z,30.51
2018-07-29T13:03:08.384Z,30.67
2018-07-29T13:05:37.469Z,30.34
2018-07-29T13:08:05.716Z,30.04
2018-07-29T13:10:33.745Z,29.85
2018-07-29T13:13:01.739Z,30.05
2018-07-29T13:15:29.728Z,30.39
2018-07-29T13:17:57.740Z,30.72
2018-07-29T13:20:25.720Z,30.55
2018-07-29T13:22:53.704Z,30.47
2018-07-29T13:25:21.792Z,30.53
2018-07-29T13:27:49.800Z,30.66
2018-07-29T13:30:17.797Z,30.76
2018-07-29T13:32:45.848Z,30.98
2018-07-29T13:35:13.790Z,31.24
2018-07-29T13:37:41.768Z,31.29
2018-07-29T13:40:09.938Z,31.32
2018-07-29T13:42:38.168Z,31.15
2018-07-29T13:45:08.064Z,31.08
2018-07-29T13:47:36.364Z,30.94
2018-07-29T13:50:05.728Z,30.98
2018-07-29T13:52:33.848Z,30.94
2018-07-29T13:55:01.913Z,30.68
2018-07-29T13:57:30.004Z,30.72
2018-07-29T13:59:58.084Z,30.81
2018-07-29T14:02:26.114Z,31.11
2018-07-29T14:04:54.133Z,31.18
2018-07-29T14:07:22.147Z,30.58
2018-07-29T14:09:50.164Z,30.10
2018-07-29T14:12:18.196Z,30.11
2018-07-29T14:14:46.173Z,30.40
2018-07-29T14:17:14.216Z,30.50
2018-07-29T14:19:42.500Z,30.55
2018-07-29T14:22:10.488Z,30.90
2018-07-29T14:24:38.528Z,30.90
2018-07-29T14:27:06.737Z,31.05
2018-07-29T14:29:34.737Z,31.03
2018-07-29T14:32:02.752Z,31.16
2018-07-29T14:34:30.864Z,31.31
2018-07-29T14:36:58.935Z,31.25
2018-07-29T14:39:26.995Z,31.23
2018-07-29T14:41:58.031Z,31.37
2018-07-29T14:44:26.019Z,31.35
2018-07-29T14:46:54.097Z,31.04
2018-07-29T14:49:22.093Z,30.84
2018-07-29T14:51:50.209Z,30.89
2018-07-29T14:54:19.296Z,30.80
2018-07-29T14:56:47.327Z,30.79
2018-07-29T14:59:15.412Z,30.80
2018-07-29T15:01:43.566Z,30.74
2018-07-29T15:04:11.677Z,30.88
2018-07-29T15:06:40.700Z,30.89
2018-07-29T15:09:09.838Z,31.13
2018-07-29T15:11:37.849Z,31.29
2018-07-29T15:14:06.186Z,31.34
2018-07-29T15:16:34.169Z,31.24
2018-07-29T15:19:02.216Z,31.07
2018-07-29T15:21:30.273Z,31.08
2018-07-29T15:23:58.673Z,31.00
2018-07-29T15:26:26.712Z,30.89
2018-07-29T15:28:54.795Z,30.90
2018-07-29T15:31:22.768Z,30.99
2018-07-29T15:33:50.836Z,31.24
2018-07-29T15:36:18.760Z,31.23
2018-07-29T15:38:46.804Z,31.37
2018-07-29T15:41:14.796Z,31.27
2018-07-29T15:43:42.788Z,31.20
2018-07-29T15:46:10.786Z,31.12
2018-07-29T15:48:38.798Z,31.17
2018-07-29T15:51:06.843Z,31.13
2018-07-29T15:53:34.892Z,31.00
2018-07-29T15:56:02.952Z,30.93
2018-07-29T15:58:31.045Z,30.97
2018-07-29T16:01:00.141Z,30.84
2018-07-29T16:03:28.216Z,30.89
2018-07-29T16:05:56.189Z,30.91
2018-07-29T16:08:24.192Z,30.73
2018-07-29T16:10:52.207Z,30.72
2018-07-29T16:13:20.400Z,30.76
2018-07-29T16:15:48.420Z,30.69
2018-07-29T16:18:16.578Z,30.99
2018-07-29T16:20:44.585Z,31.25
2018-07-29T16:23:12.602Z,31.25
2018-07-29T16:25:40.593Z,31.21
2018-07-29T16:28:08.616Z,31.26
2018-07-29T16:30:36.700Z,31.20
2018-07-29T16:33:04.700Z,31.11
2018-07-29T16:35:32.733Z,31.29
2018-07-29T16:38:00.736Z,31.50
2018-07-29T16:40:28.815Z,31.78
2018-07-29T16:42:56.859Z,31.89
2018-07-29T16:45:24.851Z,31.67
2018-07-29T16:47:52.938Z,31.35
2018-07-29T16:50:21.059Z,31.35
2018-07-29T16:52:49.112Z,31.36
2018-07-29T16:55:17.223Z,31.27
2018-07-29T16:57:45.354Z,31.56
2018-07-29T17:00:13.481Z,31.44
2018-07-29T17:02:41.558Z,31.45
2018-07-29T17:05:09.561Z,31.48
2018-07-29T17:07:37.695Z,31.41
2018-07-29T17:10:05.721Z,31.38
2018-07-29T17:12:33.741Z,31.51
2018-07-29T17:15:01.729Z,31.52
2018-07-29T17:17:29.736Z,31.61
2018-07-29T17:19:57.805Z,31.30
2018-07-29T17:22:25.925Z,31.10
2018-07-29T17:24:53.970Z,31.03
2018-07-29T17:27:22.013Z,31.21
2018-07-29T17:29:50.141Z,31.33
2018-07-29T17:32:18.329Z,31.22
2018-07-29T17:34:46.441Z,31.41
2018-07-29T17:37:14.465Z,31.42
2018-07-29T17:39:42.574Z,31.46
2018-07-29T17:42:10.556Z,31.36
2018-07-29T17:44:38.660Z,31.43
2018-07-29T17:47:06.681Z,31.57
2018-07-29T17:49:34.729Z,31.51
2018-07-29T17:52:02.725Z,31.50
2018-07-29T17:54:30.724Z,31.59
2018-07-29T17:56:58.796Z,31.72
2018-07-29T17:59:26.852Z,31.71
2018-07-29T18:01:54.912Z,31.30
2018-07-29T18:04:22.961Z,31.18
2018-07-29T18:06:51.108Z,31.03
2018-07-29T18:09:19.180Z,31.05
2018-07-29T18:11:47.254Z,30.93
2018-07-29T18:14:15.237Z,30.83
2018-07-29T18:16:43.253Z,30.63
2018-07-29T18:19:11.240Z,30.53
2018-07-29T18:21:39.241Z,30.67
2018-07-29T18:24:07.239Z,30.66
2018-07-29T18:26:35.229Z,30.71
2018-07-29T18:29:03.273Z,30.70
2018-07-29T18:31:31.293Z,30.76
2018-07-29T18:33:59.329Z,30.84
2018-07-29T18:36:27.331Z,30.79
2018-07-29T18:38:55.352Z,30.60
2018-07-29T18:41:23.388Z,30.71
2018-07-29T18:43:51.395Z,30.69
2018-07-29T18:46:19.484Z,30.59
2018-07-29T18:48:47.502Z,30.53
2018-07-29T18:51:15.560Z,30.46
2018-07-29T18:53:44.762Z,30.35
2018-07-29T18:56:12.872Z,30.30
2018-07-29T18:58:40.908Z,30.27
2018-07-29T19:01:08.976Z,30.27
2018-07-29T19:03:36.976Z,30.25
2018-07-29T19:06:05.065Z,30.23
2018-07-29T19:08:33.040Z,30.13
2018-07-29T19:11:02.096Z,30.01
2018-07-29T19:13:30.212Z,29.92
2018-07-29T19:15:58.245Z,29.84
2018-07-29T19:18:26.321Z,29.79
2018-07-29T19:20:54.633Z,29.68
2018-07-29T19:23:22.637Z,29.62
2018-07-29T19:25:50.747Z,29.57
2018-07-29T19:28:18.776Z,29.28
2018-07-29T19:30:46.799Z,29.14
2018-07-29T19:33:14.888Z,29.10
2018-07-29T19:35:42.889Z,29.11
2018-07-29T19:38:10.876Z,29.02
2018-07-29T19:40:38.890Z,28.81
2018-07-29T19:43:06.920Z,28.79
2018-07-29T19:45:35.005Z,28.56
2018-07-29T19:48:03.130Z,28.60
2018-07-29T19:50:31.126Z,28.49
2018-07-29T19:52:59.221Z,28.50
2018-07-29T19:55:27.479Z,28.52
2018-07-29T19:57:55.697Z,28.42
2018-07-29T20:00:23.717Z,28.33
2018-07-29T20:02:51.784Z,28.25
2018-07-29T20:05:19.784Z,28.15
2018-07-29T20:07:47.788Z,27.90
2018-07-29T20:10:15.777Z,27.87
2018-07-29T20:12:43.999Z,27.56
2018-07-29T20:15:12.049Z,27.53
2018-07-29T20:17:40.101Z,27.50
2018-07-29T20:20:08.725Z,27.37
2018-07-29T20:22:36.784Z,27.12
2018-07-29T20:25:05.176Z,27.18
2018-07-29T20:27:33.186Z,27.22
2018-07-29T20:30:01.218Z,27.21
2018-07-29T20:32:29.262Z,27.07
2018-07-29T20:34:57.251Z,26.88
2018-07-29T20:37:25.270Z,26.68
2018-07-29T20:39:53.372Z,26.52
2018-07-29T20:42:25.534Z,26.49
2018-07-29T20:44:53.554Z,26.42
2018-07-29T20:47:21.593Z,26.48
2018-07-29T20:49:49.632Z,26.46
2018-07-29T20:52:17.660Z,26.46
2018-07-29T20:54:45.685Z,26.38
2018-07-29T20:57:13.773Z,26.23
2018-07-29T20:59:41.751Z,26.12
2018-07-29T21:02:09.762Z,25.97
2018-07-29T21:04:37.831Z,25.81
2018-07-29T21:07:05.860Z,25.69
2018-07-29T21:09:33.896Z,25.59
2018-07-29T21:12:02.916Z,25.39
2018-07-29T21:14:30.908Z,25.37
2018-07-29T21:16:59.006Z,25.38
2018-07-29T21:19:27.034Z,25.07
2018-07-29T21:21:55.033Z,25.09
2018-07-29T21:24:23.386Z,25.08
2018-07-29T21:26:55.325Z,25.06
2018-07-29T21:29:23.323Z,24.88
2018-07-29T21:31:51.356Z,24.85
2018-07-29T21:34:19.420Z,24.85
2018-07-29T21:36:47.426Z,24.73
2018-07-29T21:39:15.512Z,24.52
2018-07-29T21:41:43.522Z,24.38
2018-07-29T21:44:11.595Z,24.43
2018-07-29T21:46:39.603Z,24.50
2018-07-29T21:49:07.665Z,24.44
2018-07-29T21:51:35.744Z,24.47
2018-07-29T21:54:03.688Z,24.39
2018-07-29T21:56:31.821Z,24.29
2018-07-29T21:58:59.831Z,24.29
2018-07-29T22:01:27.878Z,24.27
2018-07-29T22:03:55.888Z,24.26
2018-07-29T22:06:23.907Z,24.24
2018-07-29T22:08:51.934Z,24.18
2018-07-29T22:11:19.976Z,24.32
2018-07-29T22:13:48.011Z,24.51
2018-07-29T22:16:16.029Z,24.51
2018-07-29T22:18:44.047Z,24.37
2018-07-29T22:21:12.029Z,24.45
2018-07-29T22:23:40.045Z,24.50
2018-07-29T22:26:14.145Z,24.46
2018-07-29T22:28:51.423Z,24.48
2018-07-29T22:31:25.761Z,24.48
2018-07-29T22:33:53.759Z,24.54
2018-07-29T22:36:22.827Z,24.59
2018-07-29T22:38:50.829Z,24.54
2018-07-29T22:41:18.969Z,24.53
2018-07-29T22:43:46.995Z,24.58
2018-07-29T22:46:15.044Z,24.67
2018-07-29T22:48:43.052Z,24.80
2018-07-29T22:51:11.059Z,24.90
2018-07-29T22:53:39.068Z,24.95
2018-07-29T22:56:07.069Z,24.91
2018-07-29T22:58:35.089Z,24.94
2018-07-29T23:01:03.096Z,24.82
2018-07-29T23:03:31.101Z,24.88
2018-07-29T23:05:59.091Z,24.75
2018-07-29T23:08:27.588Z,24.73
2018-07-29T23:10:55.611Z,24.73
2018-07-29T23:13:24.721Z,24.70
2018-07-29T23:15:52.717Z,24.69
2018-07-29T23:18:20.744Z,24.69
2018-07-29T23:20:48.740Z,24.52
2018-07-29T23:23:16.893Z,24.47
2018-07-29T23:25:44.906Z,24.36
2018-07-29T23:28:12.924Z,24.36
2018-07-29T23:30:41.027Z,24.39
2018-07-29T23:33:09.046Z,24.39
2018-07-29T23:35:37.032Z,24.36
2018-07-29T23:38:05.086Z,24.41
2018-07-29T23:40:33.077Z,24.31
2018-07-29T23:43:01.120Z,24.33
2018-07-29T23:45:29.113Z,24.31
2018-07-29T23:47:57.155Z,24.35
2018-07-29T23:50:25.165Z,24.33
2018-07-29T23:52:54.873Z,24.29
2018-07-29T23:55:22.880Z,24.20
2018-07-29T23:57:51.921Z,24.16
